createdAt,value
2018-12-01T00:01:52.781Z,7.00
2018-12-01T00:04:26.417Z,7.43
2018-12-01T00:06:55.859Z,7.53
2018-12-01T00:09:25.085Z,7.27
2018-12-01T00:11:55.067Z,7.17
2018-12-01T00:14:26.122Z,6.83
2018-12-01T00:16:55.782Z,6.90
2018-12-01T00:19:25.332Z,7.33
2018-12-01T00:21:54.002Z,6.90
2018-12-01T00:24:23.538Z,7.63
2018-12-01T00:26:58.478Z,7.00
2018-12-01T00:29:27.091Z,8.53
2018-12-01T00:31:55.838Z,7.50
2018-12-01T00:34:25.710Z,7.50
2018-12-01T00:36:55.752Z,7.20
2018-12-01T00:39:29.588Z,8.00
2018-12-01T00:42:00.200Z,7.30
2018-12-01T00:44:32.384Z,7.77
2018-12-01T00:47:03.306Z,8.10
2018-12-01T00:49:33.361Z,7.70
2018-12-01T00:52:03.078Z,8.27
2018-12-01T00:54:33.767Z,7.27
2018-12-01T00:57:02.864Z,7.13
2018-12-01T00:59:35.303Z,7.80
2018-12-01T01:02:04.735Z,7.00
2018-12-01T01:04:37.573Z,7.70
2018-12-01T01:07:06.809Z,7.67
2018-12-01T01:09:39.572Z,7.80
2018-12-01T01:12:09.747Z,7.87
2018-12-01T01:14:41.220Z,6.93
2018-12-01T01:17:14.808Z,7.40
2018-12-01T01:19:46.505Z,7.10
2018-12-01T01:22:20.847Z,7.43
2018-12-01T01:25:12.716Z,6.53
2018-12-01T01:27:42.500Z,7.00
2018-12-01T01:30:15.416Z,7.40
2018-12-01T01:32:45.403Z,7.00
2018-12-01T01:35:14.190Z,6.53
2018-12-01T01:37:42.718Z,7.87
2018-12-01T01:40:12.897Z,7.37
2018-12-01T01:42:41.579Z,7.23
2018-12-01T01:45:13.276Z,6.77
2018-12-01T01:47:42.908Z,7.30
2018-12-01T01:50:15.056Z,7.60
2018-12-01T01:52:46.085Z,6.77
2018-12-01T01:55:17.865Z,7.80
2018-12-01T01:57:48.586Z,7.37
2018-12-01T02:00:21.195Z,7.27
2018-12-01T02:02:52.150Z,7.07
2018-12-01T02:05:25.150Z,6.23
2018-12-01T02:08:00.422Z,6.53
2018-12-01T02:10:38.233Z,6.20
2018-12-01T02:13:10.465Z,6.27
2018-12-01T02:15:47.089Z,7.40
2018-12-01T02:18:20.523Z,7.20
2018-12-01T02:20:52.773Z,6.23
2018-12-01T02:23:21.450Z,5.70
2018-12-01T02:25:49.888Z,6.27
2018-12-01T02:28:18.475Z,7.30
2018-12-01T02:30:49.590Z,5.77
2018-12-01T02:33:20.561Z,7.07
2018-12-01T02:35:49.550Z,6.03
2018-12-01T02:38:18.746Z,5.37
2018-12-01T02:40:47.380Z,6.40
2018-12-01T02:43:17.601Z,5.80
2018-12-01T02:45:51.614Z,5.90
2018-12-01T02:48:21.026Z,5.67
2018-12-01T02:50:49.561Z,5.53
2018-12-01T02:53:18.409Z,6.13
2018-12-01T02:55:47.405Z,5.60
2018-12-01T02:58:18.076Z,5.83
2018-12-01T03:00:49.316Z,6.40
2018-12-01T03:03:19.742Z,5.90
2018-12-01T03:05:48.771Z,5.80
2018-12-01T03:08:18.766Z,6.67
2018-12-01T03:10:46.962Z,6.40
2018-12-01T03:13:17.105Z,6.93
2018-12-01T03:15:50.149Z,6.80
2018-12-01T03:18:18.983Z,8.27
2018-12-01T03:20:49.315Z,7.13
2018-12-01T03:23:18.405Z,7.63
2018-12-01T03:25:49.174Z,7.70
2018-12-01T03:28:18.291Z,7.43
2018-12-01T03:30:48.658Z,7.33
2018-12-01T03:33:17.709Z,7.40
2018-12-01T03:35:47.095Z,8.00
2018-12-01T03:38:16.459Z,8.37
2018-12-01T03:40:48.595Z,7.43
2018-12-01T03:43:20.008Z,7.73
2018-12-01T03:45:53.635Z,7.43
2018-12-01T03:48:24.367Z,7.37
2018-12-01T03:50:54.077Z,7.37
2018-12-01T03:53:25.903Z,8.27
2018-12-01T03:55:55.098Z,7.80
2018-12-01T03:58:24.066Z,7.77
2018-12-01T04:00:53.353Z,7.53
2018-12-01T04:03:22.747Z,7.30
2018-12-01T04:05:51.449Z,6.77
2018-12-01T04:08:21.779Z,6.87
2018-12-01T04:10:51.342Z,7.13
2018-12-01T04:13:21.563Z,6.30
2018-12-01T04:15:50.647Z,6.90
2018-12-01T04:18:19.894Z,6.43
2018-12-01T04:20:49.223Z,6.43
2018-12-01T04:23:17.599Z,6.37
2018-12-01T04:25:46.360Z,6.93
2018-12-01T04:28:16.002Z,6.47
2018-12-01T04:30:44.311Z,6.77
2018-12-01T04:33:12.604Z,6.50
2018-12-01T04:35:40.899Z,6.67
2018-12-01T04:38:09.322Z,6.87
2018-12-01T04:40:37.698Z,6.43
2018-12-01T04:43:07.430Z,6.27
2018-12-01T04:45:35.691Z,6.33
2018-12-01T04:48:04.041Z,6.97
2018-12-01T04:50:32.901Z,5.77
2018-12-01T04:53:01.619Z,5.67
2018-12-01T04:55:29.889Z,6.27
2018-12-01T04:57:58.455Z,6.27
2018-12-01T05:00:26.916Z,6.07
2018-12-01T05:02:55.132Z,5.67
2018-12-01T05:05:23.601Z,5.57
2018-12-01T05:07:51.887Z,5.73
2018-12-01T05:10:20.848Z,6.20
2018-12-01T05:12:49.341Z,6.40
2018-12-01T05:15:18.171Z,5.67
2018-12-01T05:17:46.541Z,5.97
2018-12-01T05:20:16.638Z,6.17
2018-12-01T05:22:44.830Z,6.20
2018-12-01T05:25:13.147Z,5.47
2018-12-01T05:27:41.474Z,5.87
2018-12-01T05:30:10.126Z,6.70
2018-12-01T05:32:38.709Z,6.07
2018-12-01T05:35:08.559Z,6.07
2018-12-01T05:37:36.871Z,6.70
2018-12-01T05:40:06.652Z,5.83
2018-12-01T05:42:35.063Z,5.93
2018-12-01T05:45:03.257Z,5.63
2018-12-01T05:47:31.886Z,6.13
2018-12-01T05:50:00.114Z,5.93
2018-12-01T05:52:28.437Z,6.20
2018-12-01T05:54:56.599Z,6.53
2018-12-01T05:57:24.904Z,6.50
2018-12-01T05:59:53.301Z,6.37
2018-12-01T06:02:21.495Z,6.47
2018-12-01T06:04:50.350Z,7.37
2018-12-01T06:07:18.673Z,8.50
2018-12-01T06:09:47.009Z,10.63
2018-12-01T06:12:15.516Z,12.27
2018-12-01T06:14:43.793Z,10.37
2018-12-01T06:17:11.904Z,10.87
2018-12-01T06:19:40.041Z,9.37
2018-12-01T06:22:08.425Z,9.47
2018-12-01T06:24:42.232Z,9.20
2018-12-01T06:27:11.412Z,8.90
2018-12-01T06:29:40.120Z,7.93
2018-12-01T06:32:12.002Z,8.73
2018-12-01T06:34:40.514Z,8.77
2018-12-01T06:37:09.425Z,7.90
2018-12-01T06:39:39.217Z,8.30
2018-12-01T06:42:07.575Z,9.00
2018-12-01T06:44:38.769Z,8.70
2018-12-01T06:47:08.899Z,9.60
2018-12-01T06:49:37.797Z,9.30
2018-12-01T06:52:06.572Z,9.50
2018-12-01T06:54:35.699Z,8.80
2018-12-01T06:57:04.371Z,9.77
2018-12-01T06:59:33.990Z,9.70
2018-12-01T07:02:02.203Z,9.43
2018-12-01T07:04:30.484Z,10.20
2018-12-01T07:06:58.632Z,11.57
2018-12-01T07:09:27.848Z,11.07
2018-12-01T07:11:57.258Z,12.33
2018-12-01T07:14:27.288Z,11.87
2018-12-01T07:16:56.401Z,12.00
2018-12-01T07:19:24.923Z,11.80
2018-12-01T07:21:54.266Z,12.93
2018-12-01T07:24:23.426Z,11.87
2018-12-01T07:27:00.428Z,13.23
2018-12-01T07:29:30.614Z,11.87
2018-12-01T07:32:15.147Z,13.03
2018-12-01T07:37:29.857Z,12.17
2018-12-01T07:39:58.003Z,12.20
2018-12-01T07:42:26.205Z,13.93
2018-12-01T07:44:55.104Z,11.97
2018-12-01T07:47:23.318Z,11.87
2018-12-01T07:49:51.594Z,10.43
2018-12-01T07:52:19.725Z,10.27
2018-12-01T07:54:47.897Z,10.33
2018-12-01T07:57:16.020Z,10.40
2018-12-01T07:59:44.174Z,10.77
2018-12-01T08:02:21.766Z,10.13
2018-12-01T08:04:50.132Z,9.93
2018-12-01T08:07:18.813Z,9.87
2018-12-01T08:09:59.653Z,9.43
2018-12-01T08:12:28.029Z,9.73
2018-12-01T08:14:56.430Z,9.80
2018-12-01T08:17:25.774Z,10.00
2018-12-01T08:19:54.169Z,9.67
2018-12-01T08:22:22.472Z,10.13
2018-12-01T08:24:50.702Z,9.17
2018-12-01T08:27:19.560Z,9.13
2018-12-01T08:29:47.993Z,9.67
2018-12-01T08:32:17.973Z,9.13
2018-12-01T08:34:46.339Z,8.93
2018-12-01T08:37:15.164Z,8.53
2018-12-01T08:39:43.403Z,8.70
2018-12-01T08:42:11.718Z,8.43
2018-12-01T08:44:40.038Z,8.90
2018-12-01T08:47:08.717Z,8.80
2018-12-01T08:49:37.506Z,8.60
2018-12-01T09:12:08.077Z,8.50
2018-12-01T09:14:42.281Z,8.17
2018-12-01T09:17:14.820Z,7.93
2018-12-01T09:19:43.243Z,9.03
2018-12-01T09:22:13.319Z,7.67
2018-12-01T09:24:42.238Z,7.97
2018-12-01T09:27:14.249Z,8.50
2018-12-01T09:36:08.958Z,8.10
2018-12-01T09:41:43.687Z,8.70
2018-12-01T09:55:20.757Z,9.00
2018-12-01T10:21:35.765Z,8.33
2018-12-01T10:24:05.538Z,7.50
2018-12-01T10:26:47.212Z,8.10
2018-12-01T10:29:24.232Z,9.17
2018-12-01T10:31:53.843Z,7.73
2018-12-01T10:34:22.821Z,8.53
2018-12-01T10:36:52.892Z,7.70
2018-12-01T10:39:46.855Z,7.67
2018-12-01T10:42:25.430Z,8.13
2018-12-01T10:45:11.010Z,8.33
2018-12-01T10:55:26.997Z,7.90
2018-12-01T11:31:35.140Z,10.53
2018-12-01T11:34:23.146Z,11.07
2018-12-01T11:49:39.843Z,10.10
2018-12-01T13:57:21.738Z,11.27
2018-12-01T13:59:52.692Z,10.90
2018-12-01T14:02:23.851Z,10.80
2018-12-01T14:05:09.707Z,10.47
2018-12-01T14:13:15.466Z,11.53
2018-12-01T14:15:48.247Z,13.30
2018-12-01T14:18:17.445Z,13.67
2018-12-01T14:20:50.461Z,13.77
2018-12-01T14:23:28.319Z,12.83
2018-12-01T14:25:58.106Z,13.77
2018-12-01T14:28:27.877Z,13.20
2018-12-01T14:30:57.114Z,13.20
2018-12-01T14:33:26.742Z,13.23
2018-12-01T14:35:55.127Z,12.60
2018-12-01T14:38:24.249Z,14.10
2018-12-01T14:40:53.052Z,14.00
2018-12-01T14:43:22.735Z,12.03
2018-12-01T14:45:53.278Z,12.70
2018-12-01T14:48:23.818Z,12.67
2018-12-01T15:04:16.799Z,11.20
2018-12-01T15:06:45.325Z,11.07
2018-12-01T15:09:13.639Z,10.53
2018-12-01T15:11:43.977Z,11.80
2018-12-01T15:14:12.657Z,12.03
2018-12-01T15:16:41.642Z,12.67
2018-12-01T15:19:10.213Z,11.87
2018-12-01T15:21:39.230Z,13.43
2018-12-01T15:24:09.173Z,13.40
2018-12-01T15:26:38.593Z,13.47
2018-12-01T15:29:06.992Z,13.63
2018-12-01T15:31:35.486Z,11.43
2018-12-01T15:34:09.666Z,12.50
2018-12-01T15:36:40.851Z,12.77
2018-12-01T15:41:51.975Z,13.13
2018-12-01T15:44:20.563Z,12.90
2018-12-01T15:46:48.806Z,12.67
2018-12-01T15:49:17.257Z,13.47
2018-12-01T15:51:46.649Z,14.00
2018-12-01T15:54:17.784Z,13.30
2018-12-01T15:56:46.080Z,12.87
2018-12-01T15:59:14.814Z,12.57
2018-12-01T16:01:42.995Z,13.07
2018-12-01T16:04:12.023Z,13.30
2018-12-01T16:06:40.339Z,13.10
2018-12-01T16:09:09.126Z,11.60
2018-12-01T16:11:38.894Z,12.43
2018-12-01T16:14:08.143Z,12.40
2018-12-01T16:16:36.927Z,11.53
2018-12-01T16:19:07.164Z,11.50
2018-12-01T16:21:36.639Z,10.23
2018-12-01T16:24:07.539Z,12.68
2018-12-01T16:26:36.121Z,11.17
2018-12-01T16:29:04.680Z,11.20
2018-12-01T16:31:32.890Z,10.93
2018-12-01T16:34:04.864Z,10.00
2018-12-01T16:36:38.415Z,11.00
2018-12-01T16:39:10.019Z,10.30
2018-12-01T16:41:38.640Z,11.37
2018-12-01T16:44:11.231Z,10.50
2018-12-01T16:46:44.620Z,11.87
2018-12-01T16:49:13.048Z,10.37
2018-12-01T16:51:41.238Z,11.27
2018-12-01T16:54:09.948Z,11.97
2018-12-01T16:56:39.570Z,11.70
2018-12-01T16:59:08.060Z,11.50
2018-12-01T17:01:36.864Z,12.43
2018-12-01T17:04:05.957Z,11.23
2018-12-01T17:06:34.596Z,12.17
2018-12-01T17:09:04.275Z,11.20
2018-12-01T17:11:36.191Z,10.97
2018-12-01T17:14:05.617Z,11.23
2018-12-01T17:16:34.948Z,10.87
2018-12-01T17:19:03.486Z,9.40
2018-12-01T17:21:31.915Z,10.50
2018-12-01T17:24:00.378Z,11.13
2018-12-01T17:26:28.915Z,10.60
2018-12-01T17:28:58.429Z,10.80
2018-12-01T17:31:26.769Z,10.27
2018-12-01T17:33:59.739Z,10.53
2018-12-01T17:36:28.814Z,9.90
2018-12-01T17:39:10.142Z,10.60
2018-12-01T18:28:52.262Z,10.40
2018-12-01T18:37:10.131Z,11.83
2018-12-01T19:05:12.751Z,10.57
2018-12-01T19:07:41.381Z,11.03
2018-12-01T19:10:11.073Z,12.20
2018-12-01T19:12:39.313Z,13.07
2018-12-01T19:15:09.382Z,12.93
2018-12-01T19:17:37.589Z,14.23
2018-12-01T19:20:08.384Z,13.43
2018-12-01T19:25:50.214Z,15.47
2018-12-01T19:28:18.636Z,16.90
2018-12-01T19:30:50.707Z,17.50
2018-12-01T19:33:21.338Z,17.53
2018-12-01T19:35:51.215Z,18.83
2018-12-01T19:38:20.253Z,19.70
2018-12-01T19:40:59.346Z,20.43
2018-12-01T19:43:27.642Z,20.27
2018-12-01T19:45:56.480Z,20.10
2018-12-01T19:48:24.969Z,20.93
2018-12-01T19:50:53.448Z,17.97
2018-12-01T19:53:22.640Z,19.57
2018-12-01T19:55:59.153Z,19.70
2018-12-01T19:58:31.850Z,18.17
2018-12-01T20:01:10.016Z,18.63
2018-12-01T20:03:43.173Z,18.40
2018-12-01T20:06:12.021Z,16.47
2018-12-01T20:08:47.096Z,17.07
2018-12-01T20:11:21.112Z,17.40
2018-12-01T20:14:23.792Z,16.77
2018-12-01T20:16:58.017Z,16.13
2018-12-01T20:19:31.157Z,15.77
2018-12-01T20:22:06.077Z,14.37
2018-12-01T20:24:37.846Z,14.83
2018-12-01T20:30:08.536Z,15.43
2018-12-01T20:32:50.538Z,17.20
2018-12-01T20:35:27.007Z,16.97
2018-12-01T20:38:01.564Z,16.67
2018-12-01T20:40:57.456Z,18.60
2018-12-01T20:43:21.854Z,17.53
2018-12-01T20:45:50.892Z,18.80
2018-12-01T20:48:30.158Z,18.03
2018-12-01T20:51:19.861Z,19.47
2018-12-01T21:03:50.373Z,21.50
2018-12-01T21:17:56.765Z,23.13
2018-12-01T21:20:34.312Z,24.90
2018-12-01T21:23:07.768Z,23.00
2018-12-01T21:25:41.697Z,22.13
2018-12-01T21:28:17.653Z,24.10
2018-12-01T21:33:45.655Z,22.83
2018-12-01T21:36:24.201Z,21.23
2018-12-01T21:38:55.030Z,23.00
2018-12-01T21:41:30.215Z,22.07
2018-12-01T21:43:59.470Z,20.90
2018-12-01T21:48:23.584Z,22.77
2018-12-01T21:50:52.966Z,20.20
2018-12-01T21:53:25.518Z,22.57
2018-12-01T21:55:59.322Z,21.57
2018-12-01T21:58:30.634Z,20.40
2018-12-01T22:04:21.157Z,19.90
2018-12-01T23:37:29.123Z,17.23
2018-12-01T23:40:03.404Z,19.60
